sensor_id;sensor_type;location;lat;lon;timestamp;P1;durP1;ratioP1;P2;durP2;ratioP2
65279;SDS011;51878;55.748;48.742;2023-02-03T00:02:07;45.83;;;14.23;;
65279;SDS011;51878;55.748;48.742;2023-02-03T00:04:37;44.72;;;15.15;;
65279;SDS011;51878;55.748;48.742;2023-02-03T00:07:04;71.88;;;19.98;;
65279;SDS011;51878;55.748;48.742;2023-02-03T00:09:31;47.70;;;15.90;;
65279;SDS011;51878;55.748;48.742;2023-02-03T00:11:58;48.50;;;14.70;;
65279;SDS011;51878;55.748;48.742;2023-02-03T00:14:25;48.75;;;16.45;;
65279;SDS011;51878;55.748;48.742;2023-02-03T00:16:52;33.65;;;14.85;;
65279;SDS011;51878;55.748;48.742;2023-02-03T00:19:19;55.22;;;16.42;;
65279;SDS011;51878;55.748;48.742;2023-02-03T00:21:46;66.80;;;17.50;;
65279;SDS011;51878;55.748;48.742;2023-02-03T00:24:13;40.67;;;15.95;;
65279;SDS011;51878;55.748;48.742;2023-02-03T00:26:41;31.23;;;12.23;;
65279;SDS011;51878;55.748;48.742;2023-02-03T00:29:09;41.85;;;15.10;;
65279;SDS011;51878;55.748;48.742;2023-02-03T00:31:36;38.45;;;15.75;;
65279;SDS011;51878;55.748;48.742;2023-02-03T00:34:03;42.47;;;15.05;;
65279;SDS011;51878;55.748;48.742;2023-02-03T00:36:31;51.35;;;19.73;;
65279;SDS011;51878;55.748;48.742;2023-02-03T00:38:59;51.25;;;17.67;;
65279;SDS011;51878;55.748;48.742;2023-02-03T00:41:28;26.35;;;13.07;;
65279;SDS011;51878;55.748;48.742;2023-02-03T00:43:57;35.97;;;14.55;;
65279;SDS011;51878;55.748;48.742;2023-02-03T00:46:24;35.13;;;14.93;;
65279;SDS011;51878;55.748;48.742;2023-02-03T00:48:51;30.63;;;14.95;;
65279;SDS011;51878;55.748;48.742;2023-02-03T00:51:18;31.33;;;12.40;;
65279;SDS011;51878;55.748;48.742;2023-02-03T00:53:47;28.02;;;12.20;;
65279;SDS011;51878;55.748;48.742;2023-02-03T00:56:14;31.98;;;13.18;;
65279;SDS011;51878;55.748;48.742;2023-02-03T00:58:41;52.22;;;19.98;;
65279;SDS011;51878;55.748;48.742;2023-02-03T01:01:08;53.72;;;16.33;;
65279;SDS011;51878;55.748;48.742;2023-02-03T01:03:36;22.42;;;9.35;;
65279;SDS011;51878;55.748;48.742;2023-02-03T01:06:07;27.17;;;11.20;;
65279;SDS011;51878;55.748;48.742;2023-02-03T01:08:39;20.85;;;9.80;;
65279;SDS011;51878;55.748;48.742;2023-02-03T01:11:10;25.20;;;11.77;;
65279;SDS011;51878;55.748;48.742;2023-02-03T01:13:40;29.40;;;12.35;;
65279;SDS011;51878;55.748;48.742;2023-02-03T01:16:10;29.30;;;11.55;;
65279;SDS011;51878;55.748;48.742;2023-02-03T01:18:39;30.40;;;13.82;;
65279;SDS011;51878;55.748;48.742;2023-02-03T01:21:08;28.42;;;11.80;;
65279;SDS011;51878;55.748;48.742;2023-02-03T01:23:37;31.08;;;12.00;;
65279;SDS011;51878;55.748;48.742;2023-02-03T01:26:05;28.13;;;10.75;;
65279;SDS011;51878;55.748;48.742;2023-02-03T01:28:37;37.55;;;12.93;;
65279;SDS011;51878;55.748;48.742;2023-02-03T01:31:09;28.55;;;12.43;;
65279;SDS011;51878;55.748;48.742;2023-02-03T01:33:36;19.38;;;9.98;;
65279;SDS011;51878;55.748;48.742;2023-02-03T01:36:07;19.35;;;9.25;;
65279;SDS011;51878;55.748;48.742;2023-02-03T01:38:35;16.38;;;9.05;;
65279;SDS011;51878;55.748;48.742;2023-02-03T01:41:04;23.63;;;10.65;;
65279;SDS011;51878;55.748;48.742;2023-02-03T01:43:34;59.25;;;10.40;;
65279;SDS011;51878;55.748;48.742;2023-02-03T01:46:10;17.35;;;7.85;;
65279;SDS011;51878;55.748;48.742;2023-02-03T01:48:54;27.63;;;12.60;;
65279;SDS011;51878;55.748;48.742;2023-02-03T01:51:27;16.10;;;8.30;;
65279;SDS011;51878;55.748;48.742;2023-02-03T01:53:55;19.13;;;10.15;;
65279;SDS011;51878;55.748;48.742;2023-02-03T01:56:23;22.88;;;12.50;;
65279;SDS011;51878;55.748;48.742;2023-02-03T01:58:54;20.17;;;9.25;;
65279;SDS011;51878;55.748;48.742;2023-02-03T02:01:21;22.23;;;11.07;;
65279;SDS011;51878;55.748;48.742;2023-02-03T02:03:49;29.17;;;10.15;;
65279;SDS011;51878;55.748;48.742;2023-02-03T02:06:21;12.90;;;8.25;;
65279;SDS011;51878;55.748;48.742;2023-02-03T02:08:49;18.55;;;8.25;;
65279;SDS011;51878;55.748;48.742;2023-02-03T02:11:19;18.75;;;10.43;;
65279;SDS011;51878;55.748;48.742;2023-02-03T02:13:47;21.75;;;11.90;;
65279;SDS011;51878;55.748;48.742;2023-02-03T02:22:23;19.52;;;9.40;;
65279;SDS011;51878;55.748;48.742;2023-02-03T02:30:56;21.15;;;10.77;;
65279;SDS011;51878;55.748;48.742;2023-02-03T02:34:00;21.63;;;11.25;;
65279;SDS011;51878;55.748;48.742;2023-02-03T02:39:08;28.05;;;13.32;;
65279;SDS011;51878;55.748;48.742;2023-02-03T02:41:43;31.48;;;13.23;;
65279;SDS011;51878;55.748;48.742;2023-02-03T02:46:49;22.73;;;10.82;;
65279;SDS011;51878;55.748;48.742;2023-02-03T02:49:37;29.67;;;15.35;;
65279;SDS011;51878;55.748;48.742;2023-02-03T02:52:10;21.17;;;11.65;;
65279;SDS011;51878;55.748;48.742;2023-02-03T02:54:41;17.08;;;11.18;;
65279;SDS011;51878;55.748;48.742;2023-02-03T02:57:13;18.42;;;9.25;;
65279;SDS011;51878;55.748;48.742;2023-02-03T02:59:44;24.17;;;11.32;;
65279;SDS011;51878;55.748;48.742;2023-02-03T03:02:12;16.40;;;8.43;;
65279;SDS011;51878;55.748;48.742;2023-02-03T03:04:40;22.33;;;9.05;;
65279;SDS011;51878;55.748;48.742;2023-02-03T03:07:10;16.35;;;9.32;;
65279;SDS011;51878;55.748;48.742;2023-02-03T03:09:43;26.55;;;10.60;;
65279;SDS011;51878;55.748;48.742;2023-02-03T03:12:22;23.27;;;11.23;;
65279;SDS011;51878;55.748;48.742;2023-02-03T03:14:54;24.08;;;10.80;;
65279;SDS011;51878;55.748;48.742;2023-02-03T03:17:42;26.52;;;11.02;;
65279;SDS011;51878;55.748;48.742;2023-02-03T03:20:16;21.38;;;11.75;;
65279;SDS011;51878;55.748;48.742;2023-02-03T03:22:48;17.88;;;9.40;;
65279;SDS011;51878;55.748;48.742;2023-02-03T03:25:28;25.38;;;12.73;;
65279;SDS011;51878;55.748;48.742;2023-02-03T03:28:02;27.27;;;12.48;;
65279;SDS011;51878;55.748;48.742;2023-02-03T03:30:35;22.17;;;12.20;;
65279;SDS011;51878;55.748;48.742;2023-02-03T03:33:04;29.83;;;13.88;;
65279;SDS011;51878;55.748;48.742;2023-02-03T03:35:52;31.27;;;13.52;;
65279;SDS011;51878;55.748;48.742;2023-02-03T03:38:26;21.17;;;10.73;;
65279;SDS011;51878;55.748;48.742;2023-02-03T03:41:06;20.30;;;11.27;;
65279;SDS011;51878;55.748;48.742;2023-02-03T03:43:38;24.77;;;11.55;;
65279;SDS011;51878;55.748;48.742;2023-02-03T03:46:11;34.95;;;16.35;;
65279;SDS011;51878;55.748;48.742;2023-02-03T03:48:51;27.98;;;13.23;;
65279;SDS011;51878;55.748;48.742;2023-02-03T03:51:33;23.13;;;11.77;;
65279;SDS011;51878;55.748;48.742;2023-02-03T03:54:07;23.83;;;12.00;;
65279;SDS011;51878;55.748;48.742;2023-02-03T03:56:45;34.53;;;16.45;;
65279;SDS011;51878;55.748;48.742;2023-02-03T03:59:19;20.90;;;10.70;;
65279;SDS011;51878;55.748;48.742;2023-02-03T04:01:48;19.05;;;10.15;;
65279;SDS011;51878;55.748;48.742;2023-02-03T04:04:17;26.75;;;13.15;;
65279;SDS011;51878;55.748;48.742;2023-02-03T04:06:46;19.35;;;10.57;;
65279;SDS011;51878;55.748;48.742;2023-02-03T04:09:13;32.22;;;15.13;;
65279;SDS011;51878;55.748;48.742;2023-02-03T04:11:40;31.98;;;15.48;;
65279;SDS011;51878;55.748;48.742;2023-02-03T04:14:26;24.52;;;12.70;;
65279;SDS011;51878;55.748;48.742;2023-02-03T04:16:55;33.65;;;17.08;;
65279;SDS011;51878;55.748;48.742;2023-02-03T04:19:24;31.92;;;13.75;;
65279;SDS011;51878;55.748;48.742;2023-02-03T04:21:51;24.35;;;12.38;;
65279;SDS011;51878;55.748;48.742;2023-02-03T04:24:19;38.13;;;18.27;;
65279;SDS011;51878;55.748;48.742;2023-02-03T04:26:46;28.05;;;12.25;;
65279;SDS011;51878;55.748;48.742;2023-02-03T04:29:13;33.67;;;15.77;;
65279;SDS011;51878;55.748;48.742;2023-02-03T04:31:40;29.05;;;13.70;;
65279;SDS011;51878;55.748;48.742;2023-02-03T04:34:07;33.53;;;16.38;;
65279;SDS011;51878;55.748;48.742;2023-02-03T04:36:34;26.02;;;13.57;;
65279;SDS011;51878;55.748;48.742;2023-02-03T04:39:01;25.83;;;13.98;;
65279;SDS011;51878;55.748;48.742;2023-02-03T04:41:28;19.85;;;10.38;;
65279;SDS011;51878;55.748;48.742;2023-02-03T04:43:56;27.98;;;13.73;;
65279;SDS011;51878;55.748;48.742;2023-02-03T04:46:23;25.80;;;12.82;;
65279;SDS011;51878;55.748;48.742;2023-02-03T04:48:50;20.52;;;10.43;;
65279;SDS011;51878;55.748;48.742;2023-02-03T04:51:17;25.50;;;12.52;;
65279;SDS011;51878;55.748;48.742;2023-02-03T04:53:44;24.73;;;11.63;;
65279;SDS011;51878;55.748;48.742;2023-02-03T04:56:11;20.48;;;10.73;;
65279;SDS011;51878;55.748;48.742;2023-02-03T04:58:38;17.88;;;10.13;;
65279;SDS011;51878;55.748;48.742;2023-02-03T05:01:06;26.85;;;13.32;;
65279;SDS011;51878;55.748;48.742;2023-02-03T05:03:34;20.15;;;10.20;;
65279;SDS011;51878;55.748;48.742;2023-02-03T05:06:01;30.60;;;15.45;;
65279;SDS011;51878;55.748;48.742;2023-02-03T05:08:31;26.33;;;12.07;;
65279;SDS011;51878;55.748;48.742;2023-02-03T05:10:59;22.90;;;12.52;;
65279;SDS011;51878;55.748;48.742;2023-02-03T05:13:27;29.27;;;12.20;;
65279;SDS011;51878;55.748;48.742;2023-02-03T05:15:54;26.52;;;11.07;;
65279;SDS011;51878;55.748;48.742;2023-02-03T05:18:21;23.50;;;10.93;;
65279;SDS011;51878;55.748;48.742;2023-02-03T05:20:48;26.85;;;13.73;;
65279;SDS011;51878;55.748;48.742;2023-02-03T05:23:15;21.17;;;10.82;;
65279;SDS011;51878;55.748;48.742;2023-02-03T05:25:43;34.33;;;14.68;;
65279;SDS011;51878;55.748;48.742;2023-02-03T05:28:10;26.35;;;13.07;;
65279;SDS011;51878;55.748;48.742;2023-02-03T05:30:37;30.15;;;15.10;;
65279;SDS011;51878;55.748;48.742;2023-02-03T05:33:07;31.20;;;15.13;;
65279;SDS011;51878;55.748;48.742;2023-02-03T05:35:34;21.35;;;10.75;;
65279;SDS011;51878;55.748;48.742;2023-02-03T05:38:01;25.52;;;11.35;;
65279;SDS011;51878;55.748;48.742;2023-02-03T05:40:28;25.35;;;12.48;;
65279;SDS011;51878;55.748;48.742;2023-02-03T05:43:14;26.13;;;11.48;;
65279;SDS011;51878;55.748;48.742;2023-02-03T05:45:42;25.10;;;10.55;;
65279;SDS011;51878;55.748;48.742;2023-02-03T05:48:10;25.10;;;12.00;;
65279;SDS011;51878;55.748;48.742;2023-02-03T05:50:37;31.48;;;12.90;;
65279;SDS011;51878;55.748;48.742;2023-02-03T05:53:04;24.20;;;12.77;;
65279;SDS011;51878;55.748;48.742;2023-02-03T05:55:32;20.60;;;10.82;;
65279;SDS011;51878;55.748;48.742;2023-02-03T05:57:59;28.00;;;13.98;;
65279;SDS011;51878;55.748;48.742;2023-02-03T06:00:27;20.88;;;9.65;;
65279;SDS011;51878;55.748;48.742;2023-02-03T06:02:56;22.23;;;9.75;;
65279;SDS011;51878;55.748;48.742;2023-02-03T06:05:25;27.38;;;12.70;;
65279;SDS011;51878;55.748;48.742;2023-02-03T06:07:52;17.00;;;9.65;;
65279;SDS011;51878;55.748;48.742;2023-02-03T06:10:19;24.25;;;11.05;;
65279;SDS011;51878;55.748;48.742;2023-02-03T06:12:49;23.20;;;11.95;;
65279;SDS011;51878;55.748;48.742;2023-02-03T06:15:17;27.38;;;11.32;;
65279;SDS011;51878;55.748;48.742;2023-02-03T06:17:44;22.65;;;11.70;;
65279;SDS011;51878;55.748;48.742;2023-02-03T06:20:15;25.73;;;12.52;;
65279;SDS011;51878;55.748;48.742;2023-02-03T06:22:43;25.52;;;12.45;;
65279;SDS011;51878;55.748;48.742;2023-02-03T06:25:10;23.05;;;11.80;;
65279;SDS011;51878;55.748;48.742;2023-02-03T06:27:39;25.83;;;13.43;;
65279;SDS011;51878;55.748;48.742;2023-02-03T06:30:07;40.47;;;11.60;;
65279;SDS011;51878;55.748;48.742;2023-02-03T06:32:35;27.67;;;13.13;;
65279;SDS011;51878;55.748;48.742;2023-02-03T06:35:02;26.88;;;11.13;;
65279;SDS011;51878;55.748;48.742;2023-02-03T06:37:29;28.67;;;11.30;;
65279;SDS011;51878;55.748;48.742;2023-02-03T06:39:57;25.58;;;11.45;;
65279;SDS011;51878;55.748;48.742;2023-02-03T06:42:24;28.25;;;12.30;;
65279;SDS011;51878;55.748;48.742;2023-02-03T06:44:51;26.65;;;11.43;;
65279;SDS011;51878;55.748;48.742;2023-02-03T06:47:19;24.70;;;9.80;;
65279;SDS011;51878;55.748;48.742;2023-02-03T06:49:46;27.20;;;12.02;;
65279;SDS011;51878;55.748;48.742;2023-02-03T06:52:13;20.67;;;9.38;;
65279;SDS011;51878;55.748;48.742;2023-02-03T06:54:41;24.08;;;10.95;;
65279;SDS011;51878;55.748;48.742;2023-02-03T06:57:08;30.95;;;14.73;;
65279;SDS011;51878;55.748;48.742;2023-02-03T06:59:35;26.40;;;12.20;;
65279;SDS011;51878;55.748;48.742;2023-02-03T07:02:02;31.02;;;13.38;;
65279;SDS011;51878;55.748;48.742;2023-02-03T07:04:29;28.83;;;11.65;;
65279;SDS011;51878;55.748;48.742;2023-02-03T07:06:56;23.75;;;13.05;;
65279;SDS011;51878;55.748;48.742;2023-02-03T07:09:23;23.75;;;12.70;;
65279;SDS011;51878;55.748;48.742;2023-02-03T07:11:50;24.65;;;11.73;;
65279;SDS011;51878;55.748;48.742;2023-02-03T07:14:20;25.33;;;11.23;;
65279;SDS011;51878;55.748;48.742;2023-02-03T07:16:52;20.38;;;11.18;;
65279;SDS011;51878;55.748;48.742;2023-02-03T07:19:41;24.48;;;11.77;;
65279;SDS011;51878;55.748;48.742;2023-02-03T07:22:34;21.55;;;11.85;;
65279;SDS011;51878;55.748;48.742;2023-02-03T07:25:14;22.40;;;10.85;;
65279;SDS011;51878;55.748;48.742;2023-02-03T07:27:54;23.00;;;11.70;;
65279;SDS011;51878;55.748;48.742;2023-02-03T07:30:37;21.15;;;10.68;;
65279;SDS011;51878;55.748;48.742;2023-02-03T07:34:03;22.17;;;11.18;;
65279;SDS011;51878;55.748;48.742;2023-02-03T07:36:39;19.42;;;10.20;;
65279;SDS011;51878;55.748;48.742;2023-02-03T07:39:07;23.55;;;13.15;;
65279;SDS011;51878;55.748;48.742;2023-02-03T07:41:34;18.58;;;10.10;;
65279;SDS011;51878;55.748;48.742;2023-02-03T07:44:01;19.80;;;10.18;;
65279;SDS011;51878;55.748;48.742;2023-02-03T07:46:28;21.05;;;10.38;;
65279;SDS011;51878;55.748;48.742;2023-02-03T07:48:55;19.92;;;10.48;;
65279;SDS011;51878;55.748;48.742;2023-02-03T07:51:22;17.95;;;8.88;;
65279;SDS011;51878;55.748;48.742;2023-02-03T07:53:49;23.38;;;11.77;;
65279;SDS011;51878;55.748;48.742;2023-02-03T07:56:16;20.08;;;9.65;;
65279;SDS011;51878;55.748;48.742;2023-02-03T07:58:43;22.45;;;9.63;;
65279;SDS011;51878;55.748;48.742;2023-02-03T08:01:11;19.75;;;10.25;;
65279;SDS011;51878;55.748;48.742;2023-02-03T08:03:40;23.00;;;12.30;;
65279;SDS011;51878;55.748;48.742;2023-02-03T08:06:07;16.08;;;9.70;;
65279;SDS011;51878;55.748;48.742;2023-02-03T08:08:34;18.75;;;11.00;;
65279;SDS011;51878;55.748;48.742;2023-02-03T08:11:02;26.75;;;11.70;;
65279;SDS011;51878;55.748;48.742;2023-02-03T08:13:29;24.00;;;9.32;;
65279;SDS011;51878;55.748;48.742;2023-02-03T08:15:56;20.25;;;10.65;;
65279;SDS011;51878;55.748;48.742;2023-02-03T08:18:23;19.60;;;8.90;;
65279;SDS011;51878;55.748;48.742;2023-02-03T08:20:50;22.02;;;10.63;;
65279;SDS011;51878;55.748;48.742;2023-02-03T08:23:17;19.25;;;11.40;;
65279;SDS011;51878;55.748;48.742;2023-02-03T08:25:44;18.50;;;9.77;;
65279;SDS011;51878;55.748;48.742;2023-02-03T08:28:11;22.30;;;9.90;;
65279;SDS011;51878;55.748;48.742;2023-02-03T08:30:38;17.85;;;8.98;;
65279;SDS011;51878;55.748;48.742;2023-02-03T08:33:05;16.60;;;8.27;;
65279;SDS011;51878;55.748;48.742;2023-02-03T08:35:34;22.52;;;9.60;;
65279;SDS011;51878;55.748;48.742;2023-02-03T08:38:01;21.23;;;9.55;;
65279;SDS011;51878;55.748;48.742;2023-02-03T08:40:28;19.45;;;10.30;;
65279;SDS011;51878;55.748;48.742;2023-02-03T08:42:56;23.40;;;11.18;;
65279;SDS011;51878;55.748;48.742;2023-02-03T08:45:23;20.77;;;10.93;;
65279;SDS011;51878;55.748;48.742;2023-02-03T08:47:50;23.45;;;9.50;;
65279;SDS011;51878;55.748;48.742;2023-02-03T08:50:17;27.45;;;11.38;;
65279;SDS011;51878;55.748;48.742;2023-02-03T08:52:45;27.38;;;9.13;;
65279;SDS011;51878;55.748;48.742;2023-02-03T08:55:12;19.92;;;10.23;;
65279;SDS011;51878;55.748;48.742;2023-02-03T08:57:39;24.52;;;10.30;;
65279;SDS011;51878;55.748;48.742;2023-02-03T09:00:08;19.70;;;8.77;;
65279;SDS011;51878;55.748;48.742;2023-02-03T09:02:35;20.40;;;9.63;;
65279;SDS011;51878;55.748;48.742;2023-02-03T09:05:02;22.02;;;11.10;;
65279;SDS011;51878;55.748;48.742;2023-02-03T09:07:30;22.15;;;11.00;;
65279;SDS011;51878;55.748;48.742;2023-02-03T09:09:57;21.23;;;9.50;;
65279;SDS011;51878;55.748;48.742;2023-02-03T09:12:24;25.75;;;11.18;;
65279;SDS011;51878;55.748;48.742;2023-02-03T09:14:51;25.55;;;10.45;;
65279;SDS011;51878;55.748;48.742;2023-02-03T09:17:18;27.65;;;11.68;;
65279;SDS011;51878;55.748;48.742;2023-02-03T09:19:45;18.30;;;8.63;;
65279;SDS011;51878;55.748;48.742;2023-02-03T09:22:12;18.88;;;8.95;;
65279;SDS011;51878;55.748;48.742;2023-02-03T09:24:44;25.52;;;10.23;;
65279;SDS011;51878;55.748;48.742;2023-02-03T09:27:11;29.33;;;10.75;;
65279;SDS011;51878;55.748;48.742;2023-02-03T09:29:38;19.13;;;9.15;;
65279;SDS011;51878;55.748;48.742;2023-02-03T09:32:05;26.95;;;11.45;;
65279;SDS011;51878;55.748;48.742;2023-02-03T09:34:35;23.63;;;10.68;;
65279;SDS011;51878;55.748;48.742;2023-02-03T09:37:05;27.83;;;10.73;;
65279;SDS011;51878;55.748;48.742;2023-02-03T09:39:33;18.48;;;9.10;;
65279;SDS011;51878;55.748;48.742;2023-02-03T09:45:21;14.20;;;6.82;;
65279;SDS011;51878;55.748;48.742;2023-02-03T09:47:49;17.20;;;8.65;;
65279;SDS011;51878;55.748;48.742;2023-02-03T09:50:21;12.05;;;6.65;;
65279;SDS011;51878;55.748;48.742;2023-02-03T09:52:55;22.00;;;9.65;;
65279;SDS011;51878;55.748;48.742;2023-02-03T09:55:40;17.30;;;7.45;;
65279;SDS011;51878;55.748;48.742;2023-02-03T09:58:10;18.77;;;9.82;;
65279;SDS011;51878;55.748;48.742;2023-02-03T10:03:29;18.95;;;9.38;;
65279;SDS011;51878;55.748;48.742;2023-02-03T10:06:11;18.65;;;7.72;;
65279;SDS011;51878;55.748;48.742;2023-02-03T10:19:41;16.10;;;7.68;;
65279;SDS011;51878;55.748;48.742;2023-02-03T10:22:10;15.23;;;7.45;;
65279;SDS011;51878;55.748;48.742;2023-02-03T10:24:47;21.00;;;9.05;;
65279;SDS011;51878;55.748;48.742;2023-02-03T10:27:20;19.25;;;7.18;;
65279;SDS011;51878;55.748;48.742;2023-02-03T10:29:52;17.95;;;8.80;;
65279;SDS011;51878;55.748;48.742;2023-02-03T10:32:25;19.08;;;7.97;;
65279;SDS011;51878;55.748;48.742;2023-02-03T10:34:53;15.55;;;6.93;;
65279;SDS011;51878;55.748;48.742;2023-02-03T10:37:27;16.60;;;7.10;;
65279;SDS011;51878;55.748;48.742;2023-02-03T10:39:57;17.92;;;6.50;;
65279;SDS011;51878;55.748;48.742;2023-02-03T10:42:26;14.23;;;7.38;;
65279;SDS011;51878;55.748;48.742;2023-02-03T10:45:15;16.40;;;8.00;;
65279;SDS011;51878;55.748;48.742;2023-02-03T10:48:04;15.30;;;7.55;;
65279;SDS011;51878;55.748;48.742;2023-02-03T10:50:32;17.55;;;8.05;;
65279;SDS011;51878;55.748;48.742;2023-02-03T10:53:20;11.98;;;6.28;;
65279;SDS011;51878;55.748;48.742;2023-02-03T10:56:00;12.13;;;6.82;;
65279;SDS011;51878;55.748;48.742;2023-02-03T10:58:28;18.27;;;8.57;;
65279;SDS011;51878;55.748;48.742;2023-02-03T11:01:08;19.25;;;7.75;;
65279;SDS011;51878;55.748;48.742;2023-02-03T11:06:26;14.73;;;7.50;;
65279;SDS011;51878;55.748;48.742;2023-02-03T11:08:54;17.08;;;7.20;;
65279;SDS011;51878;55.748;48.742;2023-02-03T11:11:23;15.05;;;6.72;;
65279;SDS011;51878;55.748;48.742;2023-02-03T11:16:21;10.20;;;4.78;;
65279;SDS011;51878;55.748;48.742;2023-02-03T11:19:13;12.43;;;6.57;;
65279;SDS011;51878;55.748;48.742;2023-02-03T11:21:47;26.20;;;9.02;;
65279;SDS011;51878;55.748;48.742;2023-02-03T11:24:18;13.27;;;6.60;;
65279;SDS011;51878;55.748;48.742;2023-02-03T11:31:55;20.33;;;7.35;;
65279;SDS011;51878;55.748;48.742;2023-02-03T11:34:27;12.65;;;5.95;;
65279;SDS011;51878;55.748;48.742;2023-02-03T11:42:34;11.40;;;5.82;;
65279;SDS011;51878;55.748;48.742;2023-02-03T11:45:13;14.65;;;6.80;;
65279;SDS011;51878;55.748;48.742;2023-02-03T11:47:46;11.95;;;6.22;;
65279;SDS011;51878;55.748;48.742;2023-02-03T11:53:10;14.85;;;7.28;;
65279;SDS011;51878;55.748;48.742;2023-02-03T11:59:34;11.45;;;5.80;;
65279;SDS011;51878;55.748;48.742;2023-02-03T12:07:48;9.40;;;4.90;;
65279;SDS011;51878;55.748;48.742;2023-02-03T12:16:04;7.05;;;4.25;;
65279;SDS011;51878;55.748;48.742;2023-02-03T12:18:53;9.73;;;4.85;;
65279;SDS011;51878;55.748;48.742;2023-02-03T12:29:31;9.68;;;4.70;;
65279;SDS011;51878;55.748;48.742;2023-02-03T12:32:25;13.70;;;5.80;;
65279;SDS011;51878;55.748;48.742;2023-02-03T12:35:16;12.55;;;7.20;;
65279;SDS011;51878;55.748;48.742;2023-02-03T12:37:49;12.30;;;6.40;;
65279;SDS011;51878;55.748;48.742;2023-02-03T12:40:34;13.68;;;5.68;;
65279;SDS011;51878;55.748;48.742;2023-02-03T12:45:44;11.27;;;6.00;;
65279;SDS011;51878;55.748;48.742;2023-02-03T12:48:25;12.45;;;6.10;;
65279;SDS011;51878;55.748;48.742;2023-02-03T12:57:27;12.05;;;6.63;;
65279;SDS011;51878;55.748;48.742;2023-02-03T13:00:19;15.40;;;7.18;;
65279;SDS011;51878;55.748;48.742;2023-02-03T13:03:13;12.20;;;5.95;;
65279;SDS011;51878;55.748;48.742;2023-02-03T13:06:05;10.35;;;4.85;;
65279;SDS011;51878;55.748;48.742;2023-02-03T13:08:57;9.77;;;4.43;;
65279;SDS011;51878;55.748;48.742;2023-02-03T13:16:57;15.35;;;6.00;;
65279;SDS011;51878;55.748;48.742;2023-02-03T13:19:46;13.93;;;7.20;;
65279;SDS011;51878;55.748;48.742;2023-02-03T13:22:28;13.27;;;6.88;;
65279;SDS011;51878;55.748;48.742;2023-02-03T13:31:21;10.43;;;5.65;;
65279;SDS011;51878;55.748;48.742;2023-02-03T13:39:55;10.77;;;5.63;;
65279;SDS011;51878;55.748;48.742;2023-02-03T13:42:57;10.02;;;5.78;;
65279;SDS011;51878;55.748;48.742;2023-02-03T13:45:27;7.60;;;4.72;;
65279;SDS011;51878;55.748;48.742;2023-02-03T13:50:43;8.48;;;4.90;;
65279;SDS011;51878;55.748;48.742;2023-02-03T13:53:21;9.43;;;4.75;;
65279;SDS011;51878;55.748;48.742;2023-02-03T13:55:56;6.60;;;4.35;;
65279;SDS011;51878;55.748;48.742;2023-02-03T13:58:27;12.20;;;6.85;;
65279;SDS011;51878;55.748;48.742;2023-02-03T14:01:03;11.50;;;6.50;;
65279;SDS011;51878;55.748;48.742;2023-02-03T14:03:52;9.27;;;5.20;;
65279;SDS011;51878;55.748;48.742;2023-02-03T14:09:02;10.98;;;6.40;;
65279;SDS011;51878;55.748;48.742;2023-02-03T14:11:51;12.10;;;6.30;;
65279;SDS011;51878;55.748;48.742;2023-02-03T14:20:02;12.02;;;5.72;;
65279;SDS011;51878;55.748;48.742;2023-02-03T14:22:55;13.77;;;7.15;;
65279;SDS011;51878;55.748;48.742;2023-02-03T14:25:36;10.98;;;5.10;;
65279;SDS011;51878;55.748;48.742;2023-02-03T14:28:15;9.70;;;5.30;;
65279;SDS011;51878;55.748;48.742;2023-02-03T14:31:07;10.18;;;6.72;;
65279;SDS011;51878;55.748;48.742;2023-02-03T14:33:44;11.57;;;7.68;;
65279;SDS011;51878;55.748;48.742;2023-02-03T14:39:57;10.40;;;6.00;;
65279;SDS011;51878;55.748;48.742;2023-02-03T14:42:09;11.65;;;5.43;;
65279;SDS011;51878;55.748;48.742;2023-02-03T14:44:55;15.02;;;6.90;;
65279;SDS011;51878;55.748;48.742;2023-02-03T14:56:11;14.48;;;7.25;;
65279;SDS011;51878;55.748;48.742;2023-02-03T14:58:44;15.07;;;6.75;;
65279;SDS011;51878;55.748;48.742;2023-02-03T15:01:26;11.82;;;6.20;;
65279;SDS011;51878;55.748;48.742;2023-02-03T15:06:46;11.68;;;7.03;;
65279;SDS011;51878;55.748;48.742;2023-02-03T15:14:44;16.25;;;6.40;;
65279;SDS011;51878;55.748;48.742;2023-02-03T15:17:29;19.83;;;8.73;;
65279;SDS011;51878;55.748;48.742;2023-02-03T15:22:26;11.70;;;6.72;;
65279;SDS011;51878;55.748;48.742;2023-02-03T15:24:56;10.95;;;5.45;;
65279;SDS011;51878;55.748;48.742;2023-02-03T15:27:30;11.80;;;7.03;;
65279;SDS011;51878;55.748;48.742;2023-02-03T15:29:58;14.52;;;7.88;;
65279;SDS011;51878;55.748;48.742;2023-02-03T15:32:42;12.10;;;7.18;;
65279;SDS011;51878;55.748;48.742;2023-02-03T15:35:17;15.88;;;8.43;;
65279;SDS011;51878;55.748;48.742;2023-02-03T15:37:50;11.90;;;6.30;;
65279;SDS011;51878;55.748;48.742;2023-02-03T15:40:22;12.98;;;7.72;;
65279;SDS011;51878;55.748;48.742;2023-02-03T15:43:02;20.73;;;11.23;;
65279;SDS011;51878;55.748;48.742;2023-02-03T15:45:43;19.65;;;10.73;;
65279;SDS011;51878;55.748;48.742;2023-02-03T15:48:31;22.33;;;9.67;;
65279;SDS011;51878;55.748;48.742;2023-02-03T15:51:05;16.75;;;8.35;;
65279;SDS011;51878;55.748;48.742;2023-02-03T15:53:51;14.18;;;7.13;;
65279;SDS011;51878;55.748;48.742;2023-02-03T15:56:39;13.80;;;7.57;;
65279;SDS011;51878;55.748;48.742;2023-02-03T16:02:05;14.82;;;7.75;;
65279;SDS011;51878;55.748;48.742;2023-02-03T16:04:43;18.38;;;9.98;;
65279;SDS011;51878;55.748;48.742;2023-02-03T16:07:22;13.90;;;8.65;;
65279;SDS011;51878;55.748;48.742;2023-02-03T16:09:53;15.48;;;10.15;;
65279;SDS011;51878;55.748;48.742;2023-02-03T16:12:26;17.48;;;8.90;;
65279;SDS011;51878;55.748;48.742;2023-02-03T16:14:58;11.20;;;7.13;;
65279;SDS011;51878;55.748;48.742;2023-02-03T16:17:32;25.17;;;10.93;;
65279;SDS011;51878;55.748;48.742;2023-02-03T16:22:43;20.75;;;12.00;;
65279;SDS011;51878;55.748;48.742;2023-02-03T16:25:26;26.60;;;12.15;;
65279;SDS011;51878;55.748;48.742;2023-02-03T16:28:11;23.30;;;11.63;;
65279;SDS011;51878;55.748;48.742;2023-02-03T16:31:02;25.70;;;10.90;;
65279;SDS011;51878;55.748;48.742;2023-02-03T16:33:54;17.48;;;9.30;;
65279;SDS011;51878;55.748;48.742;2023-02-03T16:36:41;19.20;;;9.65;;
65279;SDS011;51878;55.748;48.742;2023-02-03T16:39:28;14.63;;;7.50;;
65279;SDS011;51878;55.748;48.742;2023-02-03T16:42:15;14.63;;;9.27;;
65279;SDS011;51878;55.748;48.742;2023-02-03T16:45:02;20.33;;;11.02;;
65279;SDS011;51878;55.748;48.742;2023-02-03T16:47:48;20.58;;;11.77;;
65279;SDS011;51878;55.748;48.742;2023-02-03T16:50:34;18.15;;;10.23;;
65279;SDS011;51878;55.748;48.742;2023-02-03T16:53:25;10.38;;;5.88;;
65279;SDS011;51878;55.748;48.742;2023-02-03T16:55:56;18.85;;;10.75;;
65279;SDS011;51878;55.748;48.742;2023-02-03T16:58:25;15.93;;;7.72;;
65279;SDS011;51878;55.748;48.742;2023-02-03T17:00:53;22.90;;;12.25;;
65279;SDS011;51878;55.748;48.742;2023-02-03T17:03:22;20.02;;;11.15;;
65279;SDS011;51878;55.748;48.742;2023-02-03T17:05:51;16.52;;;9.23;;
65279;SDS011;51878;55.748;48.742;2023-02-03T17:08:21;19.90;;;10.38;;